Map

Track Data

SID SEASON NUMBER BASIN SUBBASIN NAME ISO_TIME NATURE LAT LON WMO_WIND WMO_PRES WMO_AGENCY TRACK_TYPE DIST2LAND LANDFALL IFLAG USA_AGENCY USA_ATCF_ID USA_LAT USA_LON USA_RECORD USA_STATUS USA_WIND USA_PRES USA_SSHS USA_R34_NE USA_R34_SE USA_R34_SW USA_R34_NW USA_R50_NE USA_R50_SE USA_R50_SW USA_R50_NW USA_R64_NE USA_R64_SE USA_R64_SW USA_R64_NW USA_POCI USA_ROCI USA_RMW USA_EYE TOKYO_LAT TOKYO_LON TOKYO_GRADE TOKYO_WIND TOKYO_PRES TOKYO_R50_DIR TOKYO_R50_LONG TOKYO_R50_SHORT TOKYO_R30_DIR TOKYO_R30_LONG TOKYO_R30_SHORT TOKYO_LAND CMA_LAT CMA_LON CMA_CAT CMA_WIND CMA_PRES HKO_LAT HKO_LON HKO_CAT HKO_WIND HKO_PRES NEWDELHI_LAT NEWDELHI_LON NEWDELHI_GRADE NEWDELHI_WIND NEWDELHI_PRES NEWDELHI_CI NEWDELHI_DP NEWDELHI_POCI REUNION_LAT REUNION_LON REUNION_TYPE REUNION_WIND REUNION_PRES REUNION_TNUM REUNION_CI REUNION_RMW REUNION_R34_NE REUNION_R34_SE REUNION_R34_SW REUNION_R34_NW REUNION_R50_NE REUNION_R50_SE REUNION_R50_SW REUNION_R50_NW REUNION_R64_NE REUNION_R64_SE REUNION_R64_SW REUNION_R64_NW BOM_LAT BOM_LON BOM_TYPE BOM_WIND BOM_PRES BOM_TNUM BOM_CI BOM_RMW BOM_R34_NE BOM_R34_SE BOM_R34_SW BOM_R34_NW BOM_R50_NE BOM_R50_SE BOM_R50_SW BOM_R50_NW BOM_R64_NE BOM_R64_SE BOM_R64_SW BOM_R64_NW BOM_ROCI BOM_POCI BOM_EYE BOM_POS_METHOD BOM_PRES_METHOD NADI_LAT NADI_LON NADI_CAT NADI_WIND NADI_PRES WELLINGTON_LAT WELLINGTON_LON WELLINGTON_WIND WELLINGTON_PRES DS824_LAT DS824_LON DS824_STAGE DS824_WIND DS824_PRES TD9636_LAT TD9636_LON TD9636_STAGE TD9636_WIND TD9636_PRES TD9635_LAT TD9635_LON TD9635_WIND TD9635_PRES TD9635_ROCI NEUMANN_LAT NEUMANN_LON NEUMANN_CLASS NEUMANN_WIND NEUMANN_PRES MLC_LAT MLC_LON MLC_CLASS MLC_WIND MLC_PRES USA_GUST BOM_GUST BOM_GUST_PER REUNION_GUST REUNION_GUST_PER USA_SEAHGT USA_SEARAD_NE USA_SEARAD_SE USA_SEARAD_SW USA_SEARAD_NW STORM_SPEED STORM_DIR
1886144N07062 1886 10 NI AS NOT_NAMED 1886-05-24 00:00:00 TS 7.20000 61.9000 main 1011 1011 _________O____ -1 7.20000 61.9000 TC 30 7 62
1886144N07062 1886 10 NI AS NOT_NAMED 1886-05-24 03:00:00 TS 7.36340 62.2049 main 1025 1025 _________PO___ -1 7.44510 62.3574 TC 30 7.20000 61.9000 1 8 61
1886144N07062 1886 10 NI AS NOT_NAMED 1886-05-24 06:00:00 TS 7.60078 62.6205 main 1049 1049 _________OP___ -1 7.70000 62.8000 TC 30 7.45195 62.3512 1 10 59
1886144N07062 1886 10 NI AS NOT_NAMED 1886-05-24 09:00:00 TS 7.86410 63.0338 main 1069 1069 _________PP___ -1 7.97746 63.2151 TC 30 7.71294 62.7921 1 10 55
1886144N07062 1886 10 NI AS NOT_NAMED 1886-05-24 12:00:00 TS 8.14622 63.4060 main 1096 1091 _________OP___ -1 8.30000 63.6000 TC 30 7.99244 63.2120 1 10 50
1886144N07062 1886 10 NI AS NOT_NAMED 1886-05-24 15:00:00 TS 8.49249 63.7862 main 1116 1111 _________PO___ -1 8.68499 63.9725 TC 30 8.30000 63.6000 1 10 44
1886144N07062 1886 10 NI AS NOT_NAMED 1886-05-24 18:00:00 TS 8.87181 64.1242 main 1128 1128 _________OP___ -1 9.10000 64.3000 TC 30 8.64361 63.9483 1 10 39
1886144N07062 1886 10 NI AS NOT_NAMED 1886-05-24 21:00:00 TS 9.25490 64.4127 main 1142 1142 _________PP___ -1 9.48495 64.5651 TC 30 9.02485 64.2603 1 10 34
1886144N07062 1886 10 NI AS NOT_NAMED 1886-05-25 00:00:00 TS 9.67183 64.6711 main 1155 1121 _________OP___ -1 9.90000 64.8000 TC 30 9.44367 64.5421 1 10 30
1886144N07062 1886 10 NI AS NOT_NAMED 1886-05-25 03:00:00 TS 10.1388 64.9288 main 1121 1069 _________PO___ -1 10.3775 65.0575 TC 30 9.90000 64.8000 1 11 27
1886144N07062 1886 10 NI AS NOT_NAMED 1886-05-25 06:00:00 TS 10.6445 65.1814 main 1069 1018 _________OP___ -1 10.9000 65.3000 TC 30 10.3890 65.0628 1 12 24
1886144N07062 1886 10 NI AS NOT_NAMED 1886-05-25 09:00:00 TS 11.1812 65.4088 main 1018 975 _________PP___ -1 11.4500 65.5150 TC 30 10.9125 65.3025 1 12 21
1886144N07062 1886 10 NI AS NOT_NAMED 1886-05-25 12:00:00 TS 11.7273 65.6080 main 975 933 _________OP___ -1 12.0000 65.7000 TC 30 11.4547 65.5159 1 11 19
1886144N07062 1886 10 NI AS NOT_NAMED 1886-05-25 15:00:00 TS 12.2500 65.7825 main 933 897 _________PO___ -1 12.5000 65.8651 TC 38 12.0000 65.7000 1 11 17
1886144N07062 1886 10 NI AS NOT_NAMED 1886-05-25 18:00:00 TS 12.7807 65.9370 main 897 852 _________OP___ -1 13.0000 66.0000 TC 47 12.5614 65.8741 1 11 14
1886144N07062 1886 10 NI AS NOT_NAMED 1886-05-25 21:00:00 TS 13.3487 66.0699 main 852 819 _________PP___ -1 13.5800 66.1225 TC 55 13.1174 66.0174 1 11 11
1886144N07062 1886 10 NI AS NOT_NAMED 1886-05-26 00:00:00 TS 13.8698 66.1636 main 815 803 _________OP___ -1 14.1000 66.2000 TC 64 13.6396 66.1271 1 9 8
1886144N07062 1886 10 NI AS NOT_NAMED 1886-05-26 03:00:00 TS 14.2687 66.2075 main 800 789 _________PO___ -1 14.4375 66.2151 TC 64 14.1000 66.2000 4 7 4
1886144N07062 1886 10 NI AS NOT_NAMED 1886-05-26 06:00:00 TS 14.5864 66.2202 main 789 781 _________OP___ -1 14.7000 66.2000 TC 64 14.4727 66.2403 4 6 0
1886144N07062 1886 10 NI AS NOT_NAMED 1886-05-26 09:00:00 TS 14.8949 66.2227 main 781 773 _________PP___ -1 15.0075 66.2000 TC 64 14.7824 66.2454 4 6 358
1886144N07062 1886 10 NI AS NOT_NAMED 1886-05-26 12:00:00 TS 15.1754 66.2139 main 773 764 _________OP___ -1 15.3000 66.2000 TC 64 15.0509 66.2277 4 5 0
1886144N07062 1886 10 NI AS NOT_NAMED 1886-05-26 15:00:00 TS 15.4287 66.2037 main 764 736 _________PO___ -1 15.5575 66.2075 TC 64 15.3000 66.2000 4 5 357
1886144N07062 1886 10 NI AS NOT_NAMED 1886-05-26 18:00:00 TS 15.6720 66.1951 main 736 718 _________OP___ -1 15.8000 66.2000 TC 64 15.5441 66.1902 4 5 356
1886144N07062 1886 10 NI AS NOT_NAMED 1886-05-26 21:00:00 TS 15.9025 66.1649 main 718 706 _________PP___ -1 16.0275 66.1575 TC 64 15.7775 66.1723 4 5 352
1886144N07062 1886 10 NI AS NOT_NAMED 1886-05-27 00:00:00 TS 16.1611 66.1216 main 697 671 _________OP___ -1 16.3000 66.1000 TC 64 16.0222 66.1433 4 6 353
1886144N07062 1886 10 NI AS NOT_NAMED 1886-05-27 03:00:00 TS 16.4925 66.0787 main 671 652 _________PO___ -1 16.6850 66.0575 TC 64 16.3000 66.1000 4 7 352
1886144N07062 1886 10 NI AS NOT_NAMED 1886-05-27 06:00:00 TS 16.8675 66.0237 main 644 620 _________OP___ -1 17.1000 66.0000 TC 64 16.6350 66.0474 4 8 350
1886144N07062 1886 10 NI AS NOT_NAMED 1886-05-27 09:00:00 TS 17.2275 65.9437 main 627 596 _________PP___ -1 17.4500 65.9075 TC 64 17.0050 65.9799 4 8 347
1886144N07062 1886 10 NI AS NOT_NAMED 1886-05-27 12:00:00 TS 17.5987 65.8487 main 604 573 _________OP___ -1 17.8000 65.8000 TC 64 17.3975 65.8974 4 8 347
1886144N07062 1886 10 NI AS NOT_NAMED 1886-05-27 15:00:00 TS 17.9962 65.7537 main 573 549 _________PO___ -1 18.1925 65.7074 TC 56 17.8000 65.8000 4 8 346
1886144N07062 1886 10 NI AS NOT_NAMED 1886-05-27 18:00:00 TS 18.3727 65.6505 main 549 529 _________OP___ -1 18.6000 65.6000 TC 49 18.2022 65.6884 4 8 344
1886144N07062 1886 10 NI AS NOT_NAMED 1886-05-27 21:00:00 TS 18.7626 65.5234 main 527 510 _________PP___ -1 19.0025 65.4602 TC 41 18.6026 65.5656 4 8 342
1886144N07062 1886 10 NI AS NOT_NAMED 1886-05-28 00:00:00 TS 19.1344 65.3899 main 510 494 _________OP___ -1 19.4000 65.3000 TC 34 19.0016 65.4349 4 7 342
1886144N07062 1886 10 NI AS NOT_NAMED 1886-05-28 03:00:00 NR 19.4000 65.3000 main 494 __________O___ -1 TC 19.4000 65.3000 2 6 342

About IBTrACS Database

This database is a web-friendly format of International Best Track Archive for Climate Stewardship (IBTrACS), a global best track data archive curated by NOAA dating back to 1842.

Updated: 2021-12-06